Felts Field Spokane US
ICAO: KSFF
IATA: SFF
Category: Medium
Scheduled Services: No

Elevation: 1953 ft
TransAlt. 18000 ft.

Airport Communications:
SPOKANE APP/DEP:133.35
ATIS:120.55
CTAF:132.5
GND:121.7
SEATTLE RDO:122.2
TWR:132.5
UNICOM:122.95

KSFF Zoom In..

If you have problems with the map follow the link
https://www.worldairports.se/pages/airport.php?
ICAO=KSFF

Runways:

(A) RW 04L length 4499 ft width 150 ft
---- / hdg 38

(B) RW 04R length 2650 ft width 75 ft
---- / hdg 38

(C) RW 22L length 2650 ft width 75 ft
---- / hdg 218

(D) RW 22R length 4499 ft width 150 ft
ILS 111.70 / hdg 218

Location; KSFF
Day. 06 / Time. 01.53 Zulu
* Altimeter: 30.11
* Temperature: 06° c. 42.8°f.
* Wind from: 000° Speed 00 kn.
Dewpoint: 04° c.
Visibility: 7 Statute Miles.
Clouds: Scattered 2800 ft.
Clouds: Overcast 5000 ft.

KSFF 060153Z 00000KT 7SM SCT028 OVC050 06/04 A3011 RMK AO2 SLP207 T00560039


Wind - Calm.

 
 
jpsmedia worldairports.se 2019   terms of use